»·PEaware :: AAL890 KPHX-KDEN

AAL890 :: KPHX-KDEN

FLIGHT INFORMATION

Flight Status: Arrived
Operator:
American Airlines
More flights by this operator :: More flights under this callsign
Pilot: Graham S. (10862)
Aircraft: BOEING 757-200
(B752)
More flights by this aircraft type
Origin: KPHX Phoenix Sky Harbor Intl
United States
Destination: KDEN Denver Intl
United States
More flights between these airports :: More routes between these airports
Route: YOTES5 YOOPR OURAY LDORA2
File this flight plan on PilotEdge
Remarks:
Altitude:
(Current/Filed)
35,000ft
Speed:
(Current/Filed)
401kts
Departed: 11-Jan-17 10:21 AM
Arrived: 11-Jan-17 11:36 AM
Distance/Time
Traveled:
522nm/1:15
Distance/Time
To Go:
Arrived

Flight Plot

Page will automatically refresh every two minutes.

Flight plan parsing failed; only flown route is shown


Map Options




Map Legend


Flown Route
Filed Route
Departure Airport
Arrival Airport
Navaid (VOR, NDB)
Fix

Horizontal Profiles

Position Reports

Time Latitude Longitude Heading Altitude Ground
Speed
11-Jan-17 09:44 33.437575 -111.998738 270 1135ft 0kts
11-Jan-17 09:45 33.437575 -111.998738 270 1135ft 0kts
11-Jan-17 09:46 33.437575 -111.998738 270 1135ft 0kts
11-Jan-17 09:47 33.437575 -111.998738 270 1135ft 0kts
11-Jan-17 09:48 33.437575 -111.998738 270 1134ft 0kts
11-Jan-17 09:49 33.437575 -111.998738 270 1134ft 0kts
11-Jan-17 09:50 33.437575 -111.998738 270 1134ft 0kts
11-Jan-17 09:51 33.437575 -111.998738 270 1134ft 0kts
11-Jan-17 09:52 33.437575 -111.998738 270 1134ft 0kts
11-Jan-17 09:53 33.437575 -111.998738 270 1134ft 0kts
11-Jan-17 09:54 33.437575 -111.998738 270 1134ft 0kts
11-Jan-17 09:55 33.437575 -111.998738 270 1134ft 0kts
11-Jan-17 09:56 33.437575 -111.998738 270 1135ft 0kts
11-Jan-17 09:57 33.437575 -111.998738 270 1134ft 0kts
11-Jan-17 09:58 33.437575 -111.998738 270 1134ft 0kts
11-Jan-17 09:59 33.437575 -111.998738 270 1134ft 0kts
11-Jan-17 10:00 33.437575 -111.998738 270 1134ft 0kts
11-Jan-17 10:01 33.437575 -111.998738 270 1134ft 0kts
11-Jan-17 10:02 33.437575 -111.998738 270 1134ft 0kts
11-Jan-17 10:03 33.437575 -111.998738 270 1134ft 0kts
11-Jan-17 10:04 33.437575 -111.998738 270 1134ft 0kts
11-Jan-17 10:05 33.437575 -111.998738 270 1134ft 0kts
11-Jan-17 10:06 33.437575 -111.998738 270 1134ft 0kts
11-Jan-17 10:07 33.437575 -111.998738 270 1134ft 0kts
11-Jan-17 10:08 33.437573 -111.998501 270 1135ft 0kts
11-Jan-17 10:09 33.437473 -111.997937 316 1135ft 0kts
11-Jan-17 10:10 33.437416 -111.997885 329 1135ft 0kts
11-Jan-17 10:11 33.437416 -111.997885 329 1135ft 0kts
11-Jan-17 10:12 33.437416 -111.997885 329 1135ft 0kts
11-Jan-17 10:13 33.437416 -111.997885 329 1135ft 0kts
11-Jan-17 10:14 33.438033 -111.998071 0 1136ft 1kts
11-Jan-17 10:15 33.439601 -111.999127 261 1137ft 9kts
11-Jan-17 10:16 33.439675 -112.005897 272 1134ft 17kts
11-Jan-17 10:17 33.439738 -112.013048 268 1130ft 28kts
11-Jan-17 10:18 33.439798 -112.021364 269 1124ft 26kts
11-Jan-17 10:19 33.439760 -112.026583 266 1120ft 11kts
11-Jan-17 10:20 33.440872 -112.027529 89 1119ft 9kts
11-Jan-17 10:21 33.440273 -111.991358 99 1837ft 157kts
11-Jan-17 10:22 33.432955 -111.935538 97 3643ft 189kts
11-Jan-17 10:23 33.440509 -111.870352 39 5404ft 242kts
11-Jan-17 10:24 33.512685 -111.857229 357 8742ft 273kts
11-Jan-17 10:25 33.588521 -111.847780 358 12195ft 288kts
11-Jan-17 10:26 33.671305 -111.831911 7 14329ft 344kts
11-Jan-17 10:27 33.768046 -111.799992 7 16961ft 373kts
11-Jan-17 10:28 33.859855 -111.728567 28 19608ft 410kts
11-Jan-17 10:29 33.951617 -111.644152 27 22058ft 423kts
11-Jan-17 10:30 34.047268 -111.561108 18 24249ft 424kts
11-Jan-17 10:31 34.149275 -111.485382 20 26063ft 443kts
11-Jan-17 10:32 34.254741 -111.404431 20 27741ft 457kts
11-Jan-17 10:33 34.362656 -111.321081 21 29195ft 470kts
11-Jan-17 10:34 34.473392 -111.235249 21 30532ft 480kts
11-Jan-17 10:35 34.586424 -111.147341 22 31868ft 487kts
11-Jan-17 10:36 34.701441 -111.065914 16 33422ft 476kts
11-Jan-17 10:37 34.818050 -110.991771 18 34814ft 476kts
11-Jan-17 10:38 34.933976 -110.915859 18 35022ft 475kts
11-Jan-17 10:39 35.049432 -110.839692 18 35021ft 474kts
11-Jan-17 10:40 35.164357 -110.763602 18 35027ft 474kts
11-Jan-17 10:41 35.279669 -110.687000 18 35027ft 474kts
11-Jan-17 10:42 35.394871 -110.610220 18 35028ft 474kts
11-Jan-17 10:43 35.510360 -110.532994 18 35029ft 474kts
11-Jan-17 10:44 35.625270 -110.455571 21 35027ft 475kts
11-Jan-17 10:45 35.722948 -110.338685 40 35023ft 501kts
11-Jan-17 10:46 35.814482 -110.209641 40 35023ft 502kts
11-Jan-17 10:47 35.905725 -110.080167 40 35098ft 502kts
11-Jan-17 10:48 35.996637 -109.950637 40 35100ft 502kts
11-Jan-17 10:49 36.087628 -109.820489 40 35102ft 501kts
11-Jan-17 10:50 36.177707 -109.691153 40 35109ft 501kts
11-Jan-17 10:51 36.268280 -109.560604 40 35111ft 501kts
11-Jan-17 10:52 36.358448 -109.430131 40 35113ft 500kts
11-Jan-17 10:53 36.448340 -109.299555 41 35018ft 501kts
11-Jan-17 10:54 36.538418 -109.168186 41 34937ft 501kts
11-Jan-17 10:55 36.628082 -109.036907 41 34938ft 501kts
11-Jan-17 10:56 36.718070 -108.905451 41 34940ft 501kts
11-Jan-17 10:57 36.807799 -108.773606 40 34942ft 500kts
11-Jan-17 10:58 36.897559 -108.641319 41 34943ft 501kts
11-Jan-17 10:59 36.986931 -108.508449 41 34946ft 500kts
11-Jan-17 11:00 37.075154 -108.375817 41 34953ft 500kts
11-Jan-17 11:01 37.161376 -108.246372 41 34965ft 500kts
11-Jan-17 11:02 37.250504 -108.113139 41 34967ft 500kts
11-Jan-17 11:03 37.338996 -107.979537 41 34968ft 500kts
11-Jan-17 11:04 37.427174 -107.845742 41 34955ft 500kts
11-Jan-17 11:05 37.515360 -107.711371 41 34944ft 500kts
11-Jan-17 11:06 37.603053 -107.576378 42 34946ft 499kts
11-Jan-17 11:07 37.690777 -107.442117 41 34948ft 499kts
11-Jan-17 11:08 37.777878 -107.308065 42 34932ft 500kts
11-Jan-17 11:09 37.865206 -107.172826 42 34927ft 499kts
11-Jan-17 11:10 37.952570 -107.036946 42 34805ft 499kts
11-Jan-17 11:11 38.039707 -106.900856 42 34810ft 499kts
11-Jan-17 11:12 38.124649 -106.766906 45 34787ft 516kts
11-Jan-17 11:13 38.216886 -106.621267 46 34798ft 542kts
11-Jan-17 11:14 38.320296 -106.485991 37 34864ft 535kts
11-Jan-17 11:15 38.425953 -106.355545 37 33270ft 529kts
11-Jan-17 11:16 38.529845 -106.226124 38 30642ft 532kts
11-Jan-17 11:17 38.634703 -106.094809 37 28343ft 524kts
11-Jan-17 11:18 38.736204 -105.967197 36 26407ft 508kts
11-Jan-17 11:19 38.835087 -105.842370 36 24400ft 495kts
11-Jan-17 11:20 38.931777 -105.719488 37 23767ft 490kts
11-Jan-17 11:21 39.028294 -105.594316 37 23724ft 493kts
11-Jan-17 11:22 39.113680 -105.486584 44 22434ft 469kts
11-Jan-17 11:23 39.199221 -105.378214 45 21477ft 424kts
11-Jan-17 11:24 39.262864 -105.262380 74 19225ft 403kts
11-Jan-17 11:25 39.300874 -105.133278 39 16996ft 373kts
11-Jan-17 11:26 39.384804 -105.066760 43 16965ft 376kts
11-Jan-17 11:27 39.413088 -104.938303 89 16212ft 377kts
11-Jan-17 11:28 39.393936 -104.811132 88 14506ft 340kts
11-Jan-17 11:29 39.413165 -104.696107 76 12389ft 326kts
11-Jan-17 11:30 39.474721 -104.628965 349 10982ft 312kts
11-Jan-17 11:31 39.551974 -104.668809 348 10862ft 308kts
11-Jan-17 11:32 39.639665 -104.663682 358 9210ft 311kts
11-Jan-17 11:33 39.720052 -104.662076 0 7552ft 265kts
11-Jan-17 11:34 39.785398 -104.661174 2 6288ft 216kts
11-Jan-17 11:35 39.837978 -104.660532 2 5416ft 160kts
11-Jan-17 11:36 39.859962 -104.660615 297 5421ft 15kts
11-Jan-17 11:37 39.860042 -104.661795 269 5425ft 0kts
11-Jan-17 11:38 39.860130 -104.664797 273 5428ft 14kts
11-Jan-17 11:39 39.860587 -104.671097 274 5412ft 32kts
11-Jan-17 11:40 39.859327 -104.672981 177 5406ft 0kts
11-Jan-17 11:41 39.859327 -104.672981 177 5406ft 0kts

Navigation Log

Ident Type
Flight plan parsing failed, navigation log unavailable